Terminal Aerodrome Forecast
Issued by NWS Charleston, WV

Current Version | Previous Version | Text Only | Print | Product List | Glossary Off
Versions: 1 2 3 4 5 6 7 8 9 10 11 12 13 14 15 16 17 18 19

000
FTUS41 KRLX 181700
TAFCRW
TAF
KCRW 181723Z 1818/1918 23006KT P6SM SCT120 SCT250
     FM190000 00000KT P6SM SCT250
     FM191500 06004KT P6SM SKC=

USA.gov is the U.S. government's official web portal to all federal, state and local government web resources and services.